Terminal Aerodrome Forecast
Issued by NWS

Home | Current Version | Previous Version | Text Only | Print | Product List | Glossary Off
Versions: 1 2 3 4 5 6 7 8 9 10 11 12 13 14

949
FTUS43 KUNR 182320
TAFGCC
TAF
KGCC 182320Z 1900/1924 VRB05KT P6SM SCT080
     FM190700 16012KT P6SM BKN150
     FM191400 14020G30KT P6SM BKN150=

USA.gov is the U.S. government's official web portal to all federal, state and local government web resources and services.